Aérodrome :
LOGIN :

S'inscrire | Disclaimer

   EN    FR    IT 

 










Légende :    VFR   VFR Marginal   IFR   IFR Intensif   IFR Très Intensif
Visi : 
Plafond : 
>= 8 km
>= 3000ft
5 à 8 km
1000 à 3000 ft
1500m à 5 km
500 à 1000 ft
800 à 1500m
200 à 500 ft
< 800m
< 200 ft
Symboles :   Orages  Brouillard  Fortes neiges  Fortes précipitations  Vent > 20 kt
SIGMETs :   Divers  Orages  Givrage  Turbulence  Onde Orograph.  Cendres Volcan.






- Altitude de l'aérodrome : 782 ft
- Code IATA : BGY


LIME - Orio al Serio International - Bergamo

DERNIER METAR :
  • 220020Z 06005KT 020V100 9999 SCT080 16/15 Q1022 NOSIG

METARs EXPIRÉS :
  • 212350Z 07005KT 030V110 9999 -RA SCT030 BKN080 16/15 Q1023 RETSRA NOSIG
  • 212320Z 04006KT 350V150 7000 TSRA SCT030CB BKN070 16/15 Q1023 NOSIG
  • 212250Z 36007KT 300V060 5000 TSRA BR SCT030CB BKN050 17/14 Q1023 NOSIG
  • 212220Z 03005KT 270V070 2500 TSRA BR SCT025CB BKN045 17/15 Q1024 NOSIG
  • 212150Z 36004KT 290V030 7000 -RA SCT030 BKN070 16/16 Q1023 RERA TEMPO TSRA

TAF TAF LIME
Valide du 22 à 00h jusqu'au 23 à 00h UTC


212300Z 2200/2224 VRB05KT 8000 SCT025 BKN050
TEMPO 2200/2203 3000 TSRA BKN012CB BKN040
TEMPO 2203/2207 2500 BR



MET'MAP, la Météo Aéronautique d'un coup d'oeil ! - Copyright ORBIFLY Décembre 2007 - Disclaimer

ORBIFLY MET'MAP TEAM :

Programmation & Développement : Alexandra Zaïnal
Conception & Développement : Baudouin d'Aumeries
Co-Programmation & Développement : Marc-Olivier Méhu
Soutien technique & logistique : Manuel Goepfert

Contact : metmap@orbifly.com




SOURCES & CREDITS :

   NOAA